createdAt,value
2018-07-23T00:01:26.164Z,18.01
2018-07-23T00:03:54.598Z,17.96
2018-07-23T00:06:23.100Z,17.97
2018-07-23T00:08:51.598Z,17.96
2018-07-23T00:11:20.139Z,17.95
2018-07-23T00:13:52.664Z,17.93
2018-07-23T00:16:21.142Z,17.90
2018-07-23T00:18:49.583Z,17.85
2018-07-23T00:21:18.022Z,17.72
2018-07-23T00:23:46.496Z,17.63
2018-07-23T00:26:15.024Z,17.54
2018-07-23T00:28:43.460Z,17.43
2018-07-23T00:31:11.879Z,17.45
2018-07-23T00:33:40.307Z,17.47
2018-07-23T00:36:08.790Z,17.50
2018-07-23T00:38:38.181Z,17.52
2018-07-23T00:41:06.681Z,17.50
2018-07-23T00:43:35.148Z,17.49
2018-07-23T00:46:03.694Z,17.39
2018-07-23T00:48:32.169Z,17.28
2018-07-23T00:51:00.653Z,17.24
2018-07-23T00:53:29.175Z,17.17
2018-07-23T00:55:57.708Z,17.15
2018-07-23T00:58:26.147Z,17.17
2018-07-23T01:00:54.635Z,17.16
2018-07-23T01:03:23.120Z,17.16
2018-07-23T01:05:51.530Z,17.12
2018-07-23T01:08:20.120Z,17.14
2018-07-23T01:10:48.667Z,17.09
2018-07-23T01:13:17.153Z,17.00
2018-07-23T01:15:45.666Z,16.88
2018-07-23T01:18:14.214Z,16.87
2018-07-23T01:20:42.724Z,16.80
2018-07-23T01:23:11.328Z,16.79
2018-07-23T01:25:39.864Z,16.72
2018-07-23T01:28:08.385Z,16.64
2018-07-23T01:30:36.834Z,16.56
2018-07-23T01:33:05.281Z,16.52
2018-07-23T01:35:34.388Z,16.53
2018-07-23T01:38:02.879Z,16.52
2018-07-23T01:40:31.360Z,16.48
2018-07-23T01:42:59.842Z,16.48
2018-07-23T01:45:28.294Z,16.46
2018-07-23T01:47:56.724Z,16.47
2018-07-23T01:50:25.217Z,16.51
2018-07-23T01:52:53.742Z,16.52
2018-07-23T01:55:22.169Z,16.57
2018-07-23T01:57:50.737Z,16.60
2018-07-23T02:00:19.281Z,16.60
2018-07-23T02:02:47.752Z,16.47
2018-07-23T02:05:16.203Z,16.37
2018-07-23T02:07:44.755Z,16.40
2018-07-23T02:10:13.220Z,16.42
2018-07-23T02:12:41.729Z,16.45
2018-07-23T02:15:10.201Z,16.46
2018-07-23T02:17:38.725Z,16.40
2018-07-23T02:20:07.269Z,16.22
2018-07-23T02:22:35.764Z,16.13
2018-07-23T02:25:04.338Z,16.13
2018-07-23T02:27:32.860Z,16.18
2018-07-23T02:30:01.508Z,16.22
2018-07-23T02:32:29.989Z,16.19
2018-07-23T02:34:58.461Z,16.15
2018-07-23T02:37:26.968Z,16.17
2018-07-23T02:39:55.434Z,16.24
2018-07-23T02:42:23.948Z,16.29
2018-07-23T02:44:52.510Z,16.32
2018-07-23T02:47:20.962Z,16.31
2018-07-23T02:49:49.415Z,16.27
2018-07-23T02:52:17.959Z,16.29
2018-07-23T02:54:46.427Z,16.34
2018-07-23T02:57:14.926Z,16.37
2018-07-23T02:59:43.404Z,16.41
2018-07-23T03:02:11.921Z,16.44
2018-07-23T03:04:40.490Z,16.49
2018-07-23T03:07:09.047Z,16.56
2018-07-23T03:09:37.526Z,16.55
2018-07-23T03:12:06.081Z,16.58
2018-07-23T03:14:36.037Z,16.64
2018-07-23T03:17:04.613Z,16.72
2018-07-23T03:19:33.030Z,16.82
2018-07-23T03:22:01.654Z,16.88
2018-07-23T03:24:38.456Z,16.85
2018-07-23T03:27:06.937Z,16.85
2018-07-23T03:29:35.418Z,16.91
2018-07-23T03:32:03.919Z,16.96
2018-07-23T03:34:32.358Z,17.05
2018-07-23T03:37:00.944Z,17.12
2018-07-23T03:39:29.471Z,17.16
2018-07-23T03:41:58.028Z,17.19
2018-07-23T03:44:26.526Z,17.23
2018-07-23T03:46:55.104Z,17.33
2018-07-23T03:49:23.600Z,17.41
2018-07-23T03:52:27.108Z,17.53
2018-07-23T03:54:55.558Z,17.64
2018-07-23T03:57:24.055Z,17.71
2018-07-23T03:59:52.629Z,17.79
2018-07-23T04:02:21.063Z,17.88
2018-07-23T04:04:49.501Z,17.96
2018-07-23T04:07:17.976Z,18.05
2018-07-23T04:09:46.446Z,18.13
2018-07-23T04:12:14.946Z,18.19
2018-07-23T04:14:43.484Z,18.20
2018-07-23T04:17:12.001Z,18.22
2018-07-23T04:19:40.477Z,18.23
2018-07-23T04:22:08.979Z,18.30
2018-07-23T04:24:37.458Z,18.41
2018-07-23T04:27:05.937Z,18.51
2018-07-23T04:29:34.360Z,18.56
2018-07-23T04:32:02.878Z,18.65
2018-07-23T04:34:31.293Z,18.70
2018-07-23T04:36:59.889Z,18.78
2018-07-23T04:39:28.425Z,18.86
2018-07-23T04:41:56.957Z,18.90
2018-07-23T04:44:25.499Z,18.97
2018-07-23T04:46:53.981Z,19.06
2018-07-23T04:49:22.517Z,19.14
2018-07-23T04:51:51.053Z,19.23
2018-07-23T04:54:19.646Z,19.28
2018-07-23T04:56:48.249Z,19.33
2018-07-23T04:59:16.646Z,19.40
2018-07-23T05:01:45.106Z,19.50
2018-07-23T05:04:13.574Z,19.59
2018-07-23T05:06:50.924Z,19.65
2018-07-23T05:09:19.439Z,19.73
2018-07-23T05:11:47.977Z,19.77
2018-07-23T05:14:16.553Z,19.83
2018-07-23T05:16:44.993Z,19.90
2018-07-23T05:19:13.575Z,19.98
2018-07-23T05:21:42.162Z,20.06
2018-07-23T05:24:10.626Z,20.15
2018-07-23T05:26:39.070Z,20.23
2018-07-23T05:29:07.584Z,20.35
2018-07-23T05:31:36.289Z,20.44
2018-07-23T05:34:04.869Z,20.54
2018-07-23T05:36:33.386Z,20.63
2018-07-23T05:39:01.926Z,20.70
2018-07-23T05:41:30.412Z,20.79
2018-07-23T05:43:58.944Z,20.90
2018-07-23T05:46:27.522Z,20.98
2018-07-23T05:48:55.957Z,21.05
2018-07-23T05:51:55.812Z,21.14
2018-07-23T05:54:24.361Z,21.22
2018-07-23T05:56:56.891Z,21.29
2018-07-23T05:59:25.520Z,21.39
2018-07-23T06:01:53.961Z,21.44
2018-07-23T06:04:22.489Z,21.56
2018-07-23T06:06:51.162Z,21.67
2018-07-23T06:09:19.590Z,21.77
2018-07-23T06:11:50.385Z,21.82
2018-07-23T06:14:18.890Z,21.85
2018-07-23T06:16:47.374Z,21.92
2018-07-23T06:19:15.993Z,21.99
2018-07-23T06:21:44.734Z,22.01
2018-07-23T06:24:13.319Z,22.12
2018-07-23T06:26:41.921Z,22.24
2018-07-23T06:29:10.489Z,22.33
2018-07-23T06:31:38.953Z,22.39
2018-07-23T06:34:07.479Z,22.48
2018-07-23T06:36:36.044Z,22.64
2018-07-23T06:39:06.790Z,22.75
2018-07-23T06:41:35.437Z,22.90
2018-07-23T06:44:03.974Z,23.02
2018-07-23T06:46:32.479Z,23.03
2018-07-23T06:49:01.106Z,23.11
2018-07-23T06:51:29.704Z,23.14
2018-07-23T06:53:58.294Z,23.17
2018-07-23T06:56:26.771Z,23.21
2018-07-23T06:58:55.788Z,23.31
2018-07-23T07:01:24.343Z,23.44
2018-07-23T07:03:52.918Z,23.43
2018-07-23T07:06:21.455Z,23.40
2018-07-23T07:08:50.977Z,23.43
2018-07-23T07:11:19.486Z,23.55
2018-07-23T07:13:51.037Z,23.67
2018-07-23T07:16:19.527Z,23.76
2018-07-23T07:18:48.124Z,23.82
2018-07-23T07:21:16.681Z,23.81
2018-07-23T07:23:45.170Z,23.90
2018-07-23T07:26:13.640Z,24.05
2018-07-23T07:32:42.741Z,24.03
2018-07-23T07:35:11.274Z,23.94
2018-07-23T07:38:11.558Z,23.89
2018-07-23T07:40:40.479Z,23.84
2018-07-23T07:43:09.150Z,23.86
2018-07-23T07:45:37.936Z,23.78
2018-07-23T07:48:06.453Z,23.67
2018-07-23T07:50:34.880Z,23.61
2018-07-23T07:53:03.392Z,23.57
2018-07-23T07:56:09.785Z,23.56
2018-07-23T07:58:38.389Z,23.56
2018-07-23T08:01:06.904Z,23.58
2018-07-23T08:03:35.449Z,23.59
2018-07-23T08:06:04.007Z,23.57
2018-07-23T08:08:47.673Z,23.56
2018-07-23T08:11:16.234Z,23.50
2018-07-23T08:13:44.738Z,23.51
2018-07-23T08:16:13.156Z,23.56
2018-07-23T08:18:41.656Z,23.56
2018-07-23T08:21:10.247Z,23.62
2018-07-23T08:23:38.821Z,23.70
2018-07-23T08:26:07.462Z,23.82
2018-07-23T08:28:36.000Z,23.81
2018-07-23T08:31:04.525Z,23.78
2018-07-23T08:33:33.072Z,23.86
2018-07-23T08:36:02.496Z,23.94
2018-07-23T08:38:31.075Z,23.99
2018-07-23T08:40:59.651Z,24.06
2018-07-23T08:43:28.127Z,24.12
2018-07-23T08:45:56.689Z,24.08
2018-07-23T08:48:25.140Z,24.15
2018-07-23T08:50:53.743Z,24.14
2018-07-23T08:53:22.358Z,24.27
2018-07-23T08:55:51.025Z,24.46
2018-07-23T08:58:19.529Z,24.46
2018-07-23T09:00:48.063Z,24.55
2018-07-23T09:03:17.112Z,24.58
2018-07-23T09:05:45.573Z,24.65
2018-07-23T09:08:14.076Z,24.86
2018-07-23T09:10:42.633Z,24.93
2018-07-23T09:13:11.129Z,24.98
2018-07-23T09:15:39.596Z,25.03
2018-07-23T09:18:08.108Z,25.06
2018-07-23T09:20:36.654Z,25.16
2018-07-23T09:23:05.716Z,25.26
2018-07-23T09:25:39.658Z,25.18
2018-07-23T09:28:08.131Z,25.14
2018-07-23T09:30:41.837Z,25.17
2018-07-23T09:33:10.336Z,25.37
2018-07-23T09:35:38.783Z,25.41
2018-07-23T09:38:07.245Z,25.51
2018-07-23T09:40:35.750Z,25.55
2018-07-23T09:43:04.515Z,25.63
2018-07-23T09:45:33.590Z,25.77
2018-07-23T09:48:02.035Z,25.95
2018-07-23T09:50:30.492Z,25.93
2018-07-23T09:52:58.925Z,26.00
2018-07-23T09:55:27.376Z,26.34
2018-07-23T09:57:55.883Z,26.45
2018-07-23T10:03:37.043Z,26.68
2018-07-23T10:06:05.646Z,26.63
2018-07-23T10:08:34.075Z,26.72
2018-07-23T10:11:02.900Z,26.84
2018-07-23T10:13:31.830Z,27.08
2018-07-23T10:16:00.286Z,27.47
2018-07-23T10:18:28.791Z,27.75
2018-07-23T10:20:57.233Z,27.71
2018-07-23T10:23:25.685Z,27.75
2018-07-23T10:25:54.281Z,27.74
2018-07-23T10:28:22.871Z,27.97
2018-07-23T10:30:51.388Z,28.19
2018-07-23T10:33:19.884Z,28.28
2018-07-23T10:35:48.550Z,28.42
2018-07-23T10:38:17.461Z,28.49
2018-07-23T10:40:46.041Z,28.71
2018-07-23T10:43:14.487Z,28.98
2018-07-23T10:45:43.033Z,29.34
2018-07-23T10:48:11.583Z,29.76
2018-07-23T10:50:40.214Z,29.91
2018-07-23T10:53:08.762Z,30.12
2018-07-23T10:55:37.238Z,30.04
2018-07-23T10:58:05.997Z,29.73
2018-07-23T11:00:34.505Z,29.99
2018-07-23T11:03:03.313Z,30.19
2018-07-23T11:05:31.757Z,30.18
2018-07-23T11:08:00.385Z,30.26
2018-07-23T11:10:28.941Z,30.35
2018-07-23T11:12:57.516Z,30.13
2018-07-23T11:15:26.110Z,30.45
2018-07-23T11:17:54.586Z,31.05
2018-07-23T11:20:23.030Z,31.48
2018-07-23T11:22:51.485Z,31.22
2018-07-23T11:25:38.978Z,30.96
2018-07-23T11:27:48.633Z,31.03
2018-07-23T11:30:17.205Z,30.74
2018-07-23T11:32:45.787Z,29.84
2018-07-23T11:35:14.360Z,29.51
2018-07-23T11:37:42.930Z,29.25
2018-07-23T11:40:11.403Z,29.00
2018-07-23T11:42:39.924Z,28.97
2018-07-23T11:45:08.505Z,29.65
2018-07-23T11:47:37.107Z,30.53
2018-07-23T11:50:05.693Z,31.36
2018-07-23T11:52:34.225Z,31.93
2018-07-23T11:55:02.746Z,32.57
2018-07-23T11:57:32.601Z,32.55
2018-07-23T12:00:01.214Z,32.31
2018-07-23T12:02:29.698Z,32.74
2018-07-23T12:04:58.258Z,32.83
2018-07-23T12:07:26.768Z,32.75
2018-07-23T12:09:55.705Z,33.24
2018-07-23T12:12:24.232Z,33.78
2018-07-23T12:14:52.693Z,34.43
2018-07-23T12:17:21.433Z,34.15
2018-07-23T12:19:50.658Z,32.95
2018-07-23T12:22:36.709Z,32.23
2018-07-23T12:25:05.321Z,31.48
2018-07-23T12:27:33.849Z,31.06
2018-07-23T12:30:02.324Z,30.98
2018-07-23T12:32:30.956Z,31.74
2018-07-23T12:34:59.489Z,32.79
2018-07-23T12:37:27.970Z,33.61
2018-07-23T12:39:56.863Z,34.11
2018-07-23T12:42:25.353Z,33.66
2018-07-23T12:44:53.827Z,33.28
2018-07-23T12:47:22.376Z,33.24
2018-07-23T12:49:50.950Z,33.40
2018-07-23T12:52:19.500Z,32.78
2018-07-23T12:54:48.062Z,32.29
2018-07-23T12:57:16.694Z,32.99
2018-07-23T12:59:45.184Z,33.29
2018-07-23T13:02:13.673Z,32.40
2018-07-23T13:04:42.156Z,32.91
2018-07-23T13:07:10.683Z,34.02
2018-07-23T13:09:39.256Z,34.30
2018-07-23T13:12:07.948Z,34.58
2018-07-23T13:14:36.523Z,35.19
2018-07-23T13:17:05.169Z,35.41
2018-07-23T13:19:33.705Z,34.81
2018-07-23T13:22:02.193Z,33.74
2018-07-23T13:24:30.672Z,33.78
2018-07-23T13:26:59.136Z,34.22
2018-07-23T13:29:27.737Z,34.42
2018-07-23T13:31:56.327Z,34.83
2018-07-23T13:34:24.775Z,35.57
2018-07-23T13:36:53.283Z,36.23
2018-07-23T13:39:21.948Z,36.60
2018-07-23T13:41:50.429Z,36.09
2018-07-23T13:44:19.007Z,36.34
2018-07-23T13:46:48.234Z,36.48
2018-07-23T13:49:16.814Z,36.58
2018-07-23T13:51:45.258Z,36.77
2018-07-23T13:54:13.801Z,36.69
2018-07-23T13:56:42.278Z,36.55
2018-07-23T13:59:10.736Z,35.70
2018-07-23T14:01:39.347Z,34.78
2018-07-23T14:04:07.874Z,34.20
2018-07-23T14:06:38.633Z,33.59
2018-07-23T14:09:09.442Z,33.03
2018-07-23T14:11:37.937Z,33.21
2018-07-23T14:14:06.498Z,32.87
2018-07-23T14:16:35.306Z,32.54
2018-07-23T14:19:03.801Z,32.31
2018-07-23T14:21:32.328Z,32.34
2018-07-23T14:24:00.777Z,32.39
2018-07-23T14:26:29.258Z,32.06
2018-07-23T14:28:57.997Z,31.79
2018-07-23T14:31:26.566Z,31.59
2018-07-23T14:33:55.208Z,31.33
2018-07-23T14:36:23.733Z,31.09
2018-07-23T14:38:52.197Z,30.99
2018-07-23T14:41:20.701Z,30.97
2018-07-23T14:43:49.182Z,30.95
2018-07-23T14:46:17.617Z,31.59
2018-07-23T14:48:46.169Z,32.52
2018-07-23T14:51:20.216Z,33.42
2018-07-23T14:53:48.755Z,34.12
2018-07-23T14:56:17.274Z,34.62
2018-07-23T14:58:45.706Z,34.62
2018-07-23T15:01:14.300Z,34.05
2018-07-23T15:03:43.085Z,33.64
2018-07-23T15:06:11.667Z,33.77
2018-07-23T15:08:40.137Z,33.91
2018-07-23T15:11:08.573Z,34.04
2018-07-23T15:13:37.170Z,33.81
2018-07-23T15:16:05.775Z,33.84
2018-07-23T15:18:34.484Z,33.65
2018-07-23T15:21:03.089Z,33.52
2018-07-23T15:23:32.008Z,33.45
2018-07-23T15:26:00.684Z,33.31
2018-07-23T15:28:29.271Z,33.07
2018-07-23T15:30:58.118Z,32.90
2018-07-23T15:33:26.587Z,32.80
2018-07-23T15:35:55.029Z,32.63
2018-07-23T15:38:23.573Z,32.75
2018-07-23T15:40:52.131Z,32.89
2018-07-23T15:43:20.612Z,33.08
2018-07-23T15:45:49.270Z,32.87
2018-07-23T15:48:17.651Z,32.46
2018-07-23T15:50:46.248Z,32.15
2018-07-23T15:53:14.775Z,32.01
2018-07-23T15:55:43.194Z,32.22
2018-07-23T15:58:11.700Z,32.55
2018-07-23T16:00:40.328Z,32.69
2018-07-23T16:03:08.860Z,32.79
2018-07-23T16:05:37.281Z,32.50
2018-07-23T16:08:05.897Z,32.49
2018-07-23T16:10:34.475Z,32.44
2018-07-23T16:13:03.001Z,32.36
2018-07-23T16:15:31.548Z,32.18
2018-07-23T16:18:00.155Z,32.34
2018-07-23T16:20:28.632Z,32.62
2018-07-23T16:23:18.007Z,32.56
2018-07-23T16:25:46.465Z,32.46
2018-07-23T16:28:15.064Z,32.15
2018-07-23T16:30:43.552Z,31.88
2018-07-23T16:33:11.986Z,31.51
2018-07-23T16:35:40.479Z,31.25
2018-07-23T16:38:09.427Z,31.02
2018-07-23T16:40:37.961Z,30.85
2018-07-23T16:43:06.708Z,30.66
2018-07-23T16:45:35.276Z,30.45
2018-07-23T16:48:20.842Z,30.29
2018-07-23T16:50:49.568Z,30.15
2018-07-23T16:53:18.104Z,30.07
2018-07-23T16:55:46.581Z,30.00
2018-07-23T16:58:15.080Z,29.93
2018-07-23T17:00:43.562Z,30.05
2018-07-23T17:03:12.031Z,30.18
2018-07-23T17:05:40.629Z,30.22
2018-07-23T17:08:09.191Z,30.23
2018-07-23T17:10:37.700Z,30.28
2018-07-23T17:13:06.153Z,30.30
2018-07-23T17:15:34.672Z,30.22
2018-07-23T17:18:03.175Z,30.19
2018-07-23T17:20:31.700Z,30.11
2018-07-23T17:23:00.167Z,29.91
2018-07-23T17:25:28.719Z,29.73
2018-07-23T17:27:57.181Z,29.61
2018-07-23T17:30:33.359Z,29.54
2018-07-23T17:33:02.175Z,29.47
2018-07-23T17:35:30.689Z,29.54
2018-07-23T17:37:59.205Z,29.72
2018-07-23T17:40:27.698Z,29.96
2018-07-23T17:42:56.116Z,30.10
2018-07-23T17:45:24.638Z,30.23
2018-07-23T17:47:53.286Z,30.28
2018-07-23T17:50:21.835Z,30.34
2018-07-23T17:52:50.355Z,30.32
2018-07-23T17:55:18.777Z,30.34
2018-07-23T17:57:47.348Z,30.36
2018-07-23T18:00:15.808Z,30.32
2018-07-23T18:02:44.227Z,30.28
2018-07-23T18:05:12.796Z,30.24
2018-07-23T18:07:41.388Z,30.09
2018-07-23T18:10:09.949Z,29.97
2018-07-23T18:12:38.411Z,29.75
2018-07-23T18:15:06.998Z,29.57
2018-07-23T18:17:35.445Z,29.42
2018-07-23T18:20:04.153Z,29.26
2018-07-23T18:22:32.600Z,29.10
2018-07-23T18:25:12.243Z,28.92
2018-07-23T18:27:40.814Z,28.68
2018-07-23T18:30:09.297Z,28.47
2018-07-23T18:32:37.861Z,28.32
2018-07-23T18:35:07.057Z,28.24
2018-07-23T18:37:35.646Z,28.15
2018-07-23T18:40:04.221Z,28.05
2018-07-23T18:42:47.414Z,27.91
2018-07-23T18:45:15.896Z,27.75
2018-07-23T18:47:44.416Z,27.68
2018-07-23T18:50:12.879Z,27.55
2018-07-23T18:52:41.467Z,27.41
2018-07-23T18:55:10.009Z,27.29
2018-07-23T18:57:38.538Z,27.15
2018-07-23T19:00:07.253Z,27.03
2018-07-23T19:02:35.779Z,26.89
2018-07-23T19:05:04.534Z,26.78
2018-07-23T19:07:32.984Z,26.67
2018-07-23T19:10:01.532Z,26.54
2018-07-23T19:12:30.023Z,26.41
2018-07-23T19:14:58.510Z,26.28
2018-07-23T19:17:27.087Z,26.13
2018-07-23T19:19:55.596Z,26.02
2018-07-23T19:22:24.143Z,25.91
2018-07-23T19:24:53.036Z,25.77
2018-07-23T19:27:21.542Z,25.65
2018-07-23T19:29:50.004Z,25.53
2018-07-23T19:32:18.561Z,25.43
2018-07-23T19:34:47.079Z,25.26
2018-07-23T19:37:15.552Z,25.14
2018-07-23T19:39:44.077Z,25.05
2018-07-23T19:42:12.694Z,24.92
2018-07-23T19:44:41.223Z,24.82
2018-07-23T19:47:09.726Z,24.72
2018-07-23T19:49:38.442Z,24.63
2018-07-23T19:52:07.407Z,24.50
2018-07-23T19:54:36.057Z,24.32
2018-07-23T19:57:04.717Z,24.13
2018-07-23T19:59:33.199Z,24.02
2018-07-23T20:02:01.745Z,23.91
2018-07-23T20:04:30.444Z,23.87
2018-07-23T20:06:59.038Z,23.81
2018-07-23T20:09:27.666Z,23.71
2018-07-23T20:11:56.268Z,23.63
2018-07-23T20:14:24.843Z,23.55
2018-07-23T20:16:53.410Z,23.43
2018-07-23T20:19:21.945Z,23.30
2018-07-23T20:21:50.442Z,23.23
2018-07-23T20:24:18.985Z,23.18
2018-07-23T20:26:47.576Z,23.17
2018-07-23T20:29:16.121Z,23.14
2018-07-23T20:31:44.609Z,23.06
2018-07-23T20:34:13.212Z,22.91
2018-07-23T20:36:41.703Z,22.85
2018-07-23T20:39:10.294Z,22.81
2018-07-23T20:41:38.885Z,22.75
2018-07-23T20:44:07.659Z,22.66
2018-07-23T20:46:36.220Z,22.60
2018-07-23T20:49:04.766Z,22.54
2018-07-23T20:51:33.374Z,22.45
2018-07-23T20:54:02.018Z,22.42
2018-07-23T20:56:30.567Z,22.42
2018-07-23T20:58:59.220Z,22.29
2018-07-23T21:01:27.745Z,22.17
2018-07-23T21:03:56.348Z,22.06
2018-07-23T21:06:24.972Z,22.00
2018-07-23T21:08:53.564Z,21.96
2018-07-23T21:11:22.100Z,21.95
2018-07-23T21:13:50.587Z,21.95
2018-07-23T21:16:19.120Z,21.92
2018-07-23T21:18:47.713Z,21.90
2018-07-23T21:21:16.326Z,21.89
2018-07-23T21:23:44.928Z,21.81
2018-07-23T21:26:13.411Z,21.74
2018-07-23T21:28:42.086Z,21.61
2018-07-23T21:31:10.561Z,21.46
2018-07-23T21:33:39.239Z,21.44
2018-07-23T21:36:07.901Z,21.47
2018-07-23T21:38:36.422Z,21.46
2018-07-23T21:41:04.953Z,21.45
2018-07-23T21:43:35.473Z,21.42
2018-07-23T21:46:04.524Z,21.31
2018-07-23T21:48:33.168Z,21.19
2018-07-23T21:51:01.755Z,21.14
2018-07-23T21:54:05.623Z,21.14
2018-07-23T21:56:34.201Z,21.14
2018-07-23T21:59:02.757Z,21.15
2018-07-23T22:01:31.287Z,21.14
2018-07-23T22:03:59.885Z,21.07
2018-07-23T22:06:28.484Z,20.92
2018-07-23T22:08:57.137Z,20.82
2018-07-23T22:11:25.680Z,20.75
2018-07-23T22:13:54.270Z,20.75
2018-07-23T22:16:22.777Z,20.77
2018-07-23T22:18:51.259Z,20.76
2018-07-23T22:21:19.792Z,20.75
2018-07-23T22:23:48.278Z,20.73
2018-07-23T22:26:16.896Z,20.66
2018-07-23T22:28:45.395Z,20.58
2018-07-23T22:31:14.043Z,20.48
2018-07-23T22:33:42.727Z,20.41
2018-07-23T22:36:11.227Z,20.39
2018-07-23T22:38:39.756Z,20.41
2018-07-23T22:41:08.317Z,20.40
2018-07-23T22:43:36.851Z,20.38
2018-07-23T22:46:05.414Z,20.32
2018-07-23T22:48:34.046Z,20.26
2018-07-23T22:51:02.599Z,20.17
2018-07-23T22:53:31.156Z,20.13
2018-07-23T22:55:59.656Z,20.09
2018-07-23T22:58:28.257Z,20.11
2018-07-23T23:00:56.718Z,20.11
2018-07-23T23:03:25.201Z,20.09
2018-07-23T23:05:53.678Z,20.07
2018-07-23T23:08:22.152Z,20.05
2018-07-23T23:10:50.631Z,20.02
2018-07-23T23:13:19.229Z,20.02
2018-07-23T23:15:47.703Z,20.03
2018-07-23T23:18:16.119Z,20.04
2018-07-23T23:20:44.664Z,20.05
2018-07-23T23:23:13.141Z,20.01
2018-07-23T23:25:41.748Z,20.02
2018-07-23T23:28:10.198Z,20.03
2018-07-23T23:30:38.809Z,19.98
2018-07-23T23:33:07.277Z,19.87
2018-07-23T23:35:35.742Z,19.73
2018-07-23T23:38:04.356Z,19.66
2018-07-23T23:40:32.923Z,19.67
2018-07-23T23:43:01.349Z,19.66
2018-07-23T23:45:29.900Z,19.60
2018-07-23T23:47:58.356Z,19.44
2018-07-23T23:50:26.783Z,19.36
2018-07-23T23:52:55.617Z,19.38
2018-07-23T23:55:24.121Z,19.43
2018-07-23T23:57:52.595Z,19.42
